This is the latest recevied weather packets stored in our database for station/object OE6JVE-13. If no packets are shown the sender has not sent any weather packets the latest 10 day(s).
| Time | Temp. | Humidity | Pressure | Rain* | Wind** | Luminosity | Snow |
|---|---|---|---|---|---|---|---|
| 1788254454 | 23.33° C | 71% | 1013.4 hPa | 0 mm | - | - | - |
| 1788253862 | 22.22° C | 80% | 1013.5 hPa | 0 mm | - | - | - |
| 1788253270 | 21.11° C | 88% | 1013.7 hPa | 0 mm | - | - | - |
| 1788252678 | 20° C | 90% | 1013.6 hPa | 0 mm | - | - | - |
| 1788252020 | 20° C | 92% | 1013.6 hPa | 0 mm | - | - | - |
| 1788251427 | 19.44° C | 94% | 1013.6 hPa | 0 mm | - | - | - |
| 1788250835 | 18.89° C | 98% | 1013.5 hPa | 0 mm | - | - | - |
| 1788250243 | 18.33° C | 99% | 1013.6 hPa | 0 mm | - | - | - |
| 1788249650 | 17.78° C | 99% | 1013.6 hPa | 0 mm | - | - | - |
| 1788249059 | 17.22° C | 99% | 1013.7 hPa | 0 mm | - | - | - |
| 1788248467 | 17.22° C | 99% | 1013.6 hPa | 0 mm | - | - | - |
| 1788247874 | 17.22° C | 99% | 1013.6 hPa | 0 mm | - | - | - |
| 1788247216 | 17.22° C | 99% | 1013.6 hPa | 0 mm | - | - | - |
| 1788246624 | 17.22° C | 99% | 1013.5 hPa | 0 mm | - | - | - |
| 1788246033 | 17.22° C | 99% | 1013.5 hPa | 0 mm | - | - | - |
| 1788245440 | 16.67° C | 99% | 1013.4 hPa | 0 mm | - | - | - |
| 1788244848 | 16.67° C | 99% | 1013.3 hPa | 0 mm | - | - | - |
| 1788244256 | 16.67° C | 99% | 1013.2 hPa | 0 mm | - | - | - |
| 1788243664 | 16.11° C | 99% | 1013.2 hPa | 0 mm | - | - | - |
| 1788243072 | 16.11° C | 99% | 1013.2 hPa | 0 mm | - | - | - |
| 1788242479 | 16.11° C | 99% | 1013.1 hPa | 0 mm | - | - | - |
| 1788241822 | 15.56° C | 99% | 1013 hPa | 0 mm | - | - | - |
| 1788241229 | 15.56° C | 99% | 1012.9 hPa | 0 mm | - | - | - |
| 1788240638 | 15.56° C | 99% | 1012.9 hPa | 0 mm | - | - | - |
| 1788240045 | 15.56° C | 99% | 1012.8 hPa | 0 mm | - | - | - |
* Rain latest hour (hover to see other rain measurements)
** Current wind speed in m/s (hover to see current wind gust speed)